Time;durP1;ratioP1;P1;durP2;ratioP2;P2;SDS_P1;SDS_P2;PMS_P1;PMS_P2;Temp;Humidity;BMP_temperature;BMP_pressure;BME280_temperature;BME280_humidity;BME280_pressure;Samples;Min_cycle;Max_cycle;Signal;HPM_P1;HPM_P2
2021/08/08 18:36:41;;;;;;;10.95;6.65;;;;;;;24.47;60.29;99803.34;3366759;29;20061;-73
2021/08/08 18:38:22;;;;;;;8.87;4.83;;;;;;;24.52;60.79;99799.78;3376112;29;20127;-73
2021/08/08 18:40:04;;;;;;;11.60;4.82;;;;;;;24.55;60.84;99802.78;3376668;29;20032;-75
2021/08/08 18:41:44;;;;;;;;;;;;;;;24.61;60.14;99803.53;3377844;29;20044;-73
2021/08/08 18:43:26;;;;;;;9.65;4.82;;;;;;;24.62;60.40;99809.78;3377489;29;19931;-74
2021/08/08 18:45:07;;;;;;;6.90;5.38;;;;;;;24.62;60.84;99805.16;3377451;29;20051;-75
2021/08/08 18:46:48;;;;;;;6.43;4.82;;;;;;;24.67;60.96;99812.47;3376574;29;20419;-74
2021/08/08 18:48:28;;;;;;;8.10;4.75;;;;;;;24.67;60.64;99802.38;3377235;29;20044;-73
2021/08/08 18:50:10;;;;;;;11.53;5.50;;;;;;;24.71;60.98;99808.09;3377508;29;20108;-74
2021/08/08 18:51:51;;;;;;;8.10;5.43;;;;;;;24.74;60.88;99808.34;3376266;29;20392;-72
2021/08/08 18:53:32;;;;;;;8.63;5.00;;;;;;;24.76;60.97;99811.59;3377302;29;20064;-74
2021/08/08 18:55:12;;;;;;;8.20;4.97;;;;;;;24.76;61.04;99808.88;3362017;29;20141;-74
2021/08/08 18:56:53;;;;;;;14.10;5.47;;;;;;;24.78;60.68;99809.41;3372379;29;20052;-74
2021/08/08 18:58:34;;;;;;;6.73;5.17;;;;;;;24.79;60.90;99805.56;3378105;29;20036;-74
2021/08/08 19:00:15;;;;;;;9.40;5.18;;;;;;;24.80;60.61;99804.44;3376772;29;20036;-75
2021/08/08 19:01:56;;;;;;;7.53;5.47;;;;;;;24.83;61.05;99807.72;3377404;29;20057;-73
2021/08/08 19:03:37;;;;;;;8.23;4.90;;;;;;;24.81;60.88;99808.81;3376492;29;20055;-73
2021/08/08 19:05:18;;;;;;;13.17;6.13;;;;;;;24.83;60.75;99811.25;3376884;29;20514;-75
2021/08/08 19:06:59;;;;;;;;;;;;;;;24.87;60.48;99816.94;3374449;29;20059;-76
2021/08/08 19:08:40;;;;;;;8.93;4.60;;;;;;;24.85;61.02;99809.06;3376411;29;19923;-75
2021/08/08 19:10:21;;;;;;;7.57;5.25;;;;;;;24.86;61.11;99807.97;3377212;29;20041;-74
2021/08/08 19:12:03;;;;;;;9.00;4.93;;;;;;;24.86;61.38;99810.69;3376512;29;20052;-75
2021/08/08 19:13:44;;;;;;;7.88;5.13;;;;;;;24.87;61.36;99812.31;3377409;29;20040;-74
2021/08/08 19:15:25;;;;;;;10.10;5.53;;;;;;;24.88;61.42;99811.19;3377378;29;20052;-75
2021/08/08 19:17:06;;;;;;;6.38;4.90;;;;;;;24.88;61.40;99813.13;3377621;29;20049;-73
2021/08/08 19:18:46;;;;;;;6.87;5.20;;;;;;;24.89;61.71;99815.56;3377179;29;20525;-75
2021/08/08 19:20:27;;;;;;;9.53;6.03;;;;;;;24.89;61.77;99812.03;3377417;29;20516;-74
2021/08/08 19:22:08;;;;;;;14.60;6.28;;;;;;;24.90;61.46;99817.19;3376917;29;20048;-75
2021/08/08 19:23:49;;;;;;;9.33;6.17;;;;;;;24.90;61.63;99817.19;3377245;29;20052;-72
2021/08/08 19:25:30;;;;;;;12.03;6.00;;;;;;;24.90;61.96;99817.19;3377002;29;20079;-73
2021/08/08 19:27:10;;;;;;;11.57;6.53;;;;;;;24.89;61.54;99818.28;3376949;29;20100;-74
2021/08/08 19:28:51;;;;;;;10.37;6.30;;;;;;;24.88;62.00;99819.38;3377116;29;20048;-76
2021/08/08 19:30:32;;;;;;;17.60;6.90;;;;;;;24.89;61.76;99818.28;3376862;29;20044;-74
2021/08/08 19:32:13;;;;;;;11.03;5.70;;;;;;;24.88;62.13;99816.66;3376541;29;20143;-74
2021/08/08 19:33:55;;;;;;;9.15;5.90;;;;;;;24.89;61.82;99809.31;3376488;29;20045;-75
2021/08/08 19:35:36;;;;;;;14.48;6.15;;;;;;;24.88;62.24;99813.13;3375270;29;20532;-76
2021/08/08 19:37:17;;;;;;;15.87;6.90;;;;;;;24.87;61.89;99819.69;3374146;29;20045;-76
2021/08/08 19:38:58;;;;;;;16.23;6.00;;;;;;;24.87;61.93;99817.75;3373104;29;20579;-76
2021/08/08 19:40:39;;;;;;;13.90;7.13;;;;;;;24.88;61.98;99819.38;3376747;29;20076;-76
2021/08/08 19:42:20;;;;;;;13.00;6.78;;;;;;;24.87;62.18;99819.69;3376715;29;20075;-74
2021/08/08 19:44:01;;;;;;;15.60;6.00;;;;;;;24.88;62.50;99818.56;3375704;29;20044;-77
2021/08/08 19:45:41;;;;;;;17.47;7.10;;;;;;;24.89;62.62;99825.66;3375443;29;20056;-74
2021/08/08 19:47:25;;;;;;;9.40;6.90;;;;;;;24.88;62.48;99826.75;3374992;29;20329;-74
2021/08/08 19:49:07;;;;;;;11.85;6.80;;;;;;;24.85;62.32;99821.88;3375389;29;20036;-75
2021/08/08 19:50:47;;;;;;;19.02;6.75;;;;;;;24.87;61.91;99825.13;3376418;29;20152;-75
2021/08/08 19:52:32;;;;;;;19.23;7.93;;;;;;;24.87;62.10;99827.84;3375760;29;20452;-75
2021/08/08 19:54:12;;;;;;;16.60;7.45;;;;;;;24.85;61.87;99830.84;3376458;29;20047;-74
2021/08/08 19:55:53;;;;;;;14.57;7.30;;;;;;;24.87;62.12;99831.41;3376295;29;20052;-74
2021/08/08 19:57:37;;;;;;;12.60;6.30;;;;;;;24.83;61.79;99833.06;3376553;29;20068;-75
2021/08/08 19:59:17;;;;;;;16.33;7.45;;;;;;;24.84;62.10;99834.69;3376119;29;20049;-76
2021/08/08 20:00:58;;;;;;;18.93;7.33;;;;;;;24.87;62.00;99838.75;3376697;29;20045;-77
2021/08/08 20:02:43;;;;;;;13.37;7.33;;;;;;;24.85;61.82;99832.78;3376554;29;20056;-74
2021/08/08 20:04:24;;;;;;;21.83;6.88;;;;;;;24.87;61.66;99838.75;3376542;29;20080;-76
2021/08/08 20:06:05;;;;;;;15.67;8.20;;;;;;;24.87;61.95;99842.31;3376429;29;20081;-75
2021/08/08 20:07:45;;;;;;;16.07;7.23;;;;;;;24.86;61.49;99834.41;3375539;29;20103;-75
2021/08/08 20:09:26;;;;;;;12.93;7.73;;;;;;;24.85;61.86;99835.50;3376568;29;20036;-76
2021/08/08 20:11:07;;;;;;;11.17;7.27;;;;;;;24.85;61.89;99835.50;3377004;29;20499;-76
2021/08/08 20:12:48;;;;;;;15.03;7.57;;;;;;;24.86;61.93;99848.03;3378231;29;20076;-74
2021/08/08 20:14:30;;;;;;;17.23;8.27;;;;;;;24.85;61.72;99841.75;3376783;29;20293;-74
2021/08/08 20:16:13;;;;;;;21.38;8.23;;;;;;;24.85;61.72;99843.69;3376735;29;20468;-75
2021/08/08 20:17:54;;;;;;;23.80;8.38;;;;;;;24.85;61.50;99851.88;3376371;29;20495;-76
2021/08/08 20:19:35;;;;;;;31.23;10.33;;;;;;;24.84;61.26;99850.25;3362239;29;20045;-77
2021/08/08 20:21:16;;;;;;;29.30;10.43;;;;;;;24.83;61.89;99849.41;3373812;29;20067;-75
2021/08/08 20:22:56;;;;;;;32.30;11.87;;;;;;;24.80;61.73;99848.06;3376558;29;20048;-76
2021/08/08 20:24:37;;;;;;;30.17;11.43;;;;;;;24.80;61.57;99861.69;3375282;29;20320;-75
2021/08/08 20:26:17;;;;;;;39.57;13.57;;;;;;;24.81;61.36;99857.09;3376581;29;20104;-76
2021/08/08 20:27:58;;;;;;;27.47;13.00;;;;;;;24.80;61.56;99858.16;3377315;29;20127;-75
2021/08/08 20:29:39;;;;;;;47.80;15.30;;;;;;;24.79;61.25;99859.28;3376393;29;20497;-75
2021/08/08 20:31:20;;;;;;;39.47;15.33;;;;;;;24.78;61.79;99863.91;3375312;29;20511;-75
2021/08/08 20:33:00;;;;;;;36.33;14.20;;;;;;;24.78;61.50;99858.47;3375970;29;20045;-75
2021/08/08 20:34:41;;;;;;;46.33;14.73;;;;;;;24.78;61.65;99858.47;3375852;29;20051;-75
2021/08/08 20:36:22;;;;;;;50.30;16.13;;;;;;;24.76;61.47;99854.41;3376504;29;20156;-79
2021/08/08 20:38:03;;;;;;;42.50;15.97;;;;;;;24.76;61.48;99857.94;3375673;29;20040;-78
2021/08/08 20:39:44;;;;;;;36.27;15.03;;;;;;;24.77;62.02;99862.28;3376188;29;20079;-76
2021/08/08 20:41:24;;;;;;;42.07;16.23;;;;;;;24.76;62.42;99866.13;3376313;29;20132;-75
2021/08/08 20:43:05;;;;;;;42.93;16.93;;;;;;;24.77;62.46;99856.81;3375099;29;20143;-75
2021/08/08 20:44:46;;;;;;;43.30;16.27;;;;;;;24.77;62.95;99858.75;3376290;29;20048;-75
2021/08/08 20:46:28;;;;;;;35.23;15.47;;;;;;;24.76;62.49;99857.13;3376460;29;20091;-75
2021/08/08 20:48:08;;;;;;;41.30;14.95;;;;;;;24.76;62.21;99859.84;3376338;29;20483;-76
2021/08/08 20:49:49;;;;;;;43.33;16.03;;;;;;;24.74;62.17;99860.13;3376417;29;20059;-75
2021/08/08 20:51:31;;;;;;;46.70;16.00;;;;;;;24.76;62.16;99860.66;3375268;29;20072;-75
2021/08/08 20:53:11;;;;;;;41.65;15.52;;;;;;;24.74;62.38;99862.03;3376165;29;20519;-76
2021/08/08 20:54:54;;;;;;;49.30;15.93;;;;;;;24.76;61.97;99870.75;3376618;29;20041;-75
2021/08/08 20:56:35;;;;;;;42.13;15.30;;;;;;;24.73;62.42;99871.31;3375861;29;20453;-75
2021/08/08 20:58:15;;;;;;;35.03;14.53;;;;;;;24.75;62.31;99863.66;3376606;29;20051;-75
2021/08/08 20:59:56;;;;;;;41.20;14.80;;;;;;;24.73;62.24;99866.69;3376282;29;20045;-74
2021/08/08 21:01:38;;;;;;;42.97;15.17;;;;;;;24.73;62.44;99872.13;3376288;29;20131;-76
2021/08/08 21:03:18;;;;;;;35.33;15.25;;;;;;;24.73;62.30;99872.13;3376494;29;20044;-76
2021/08/08 21:04:59;;;;;;;31.23;14.27;;;;;;;24.73;61.93;99868.56;3376109;29;20116;-76
2021/08/08 21:06:40;;;;;;;37.73;12.97;;;;;;;24.70;62.19;99867.22;3375172;29;20520;-74
2021/08/08 21:08:20;;;;;;;27.17;13.77;;;;;;;24.71;62.29;99877.06;3376230;29;20049;-75
2021/08/08 21:10:02;;;;;;;31.73;14.43;;;;;;;24.71;62.34;99879.78;3376811;29;20055;-76
2021/08/08 21:11:43;;;;;;;26.83;13.52;;;;;;;24.71;62.26;99877.06;3379763;29;20045;-75
2021/08/08 21:13:25;;;;;;;31.63;13.23;;;;;;;24.72;62.00;99869.69;3378945;29;20063;-76
2021/08/08 21:15:06;;;;;;;34.80;14.02;;;;;;;24.70;62.08;99866.41;3378075;29;20111;-75
2021/08/08 21:16:47;;;;;;;31.27;13.38;;;;;;;24.70;62.16;99860.97;3379892;29;20044;-75
2021/08/08 21:18:28;;;;;;;37.03;13.17;;;;;;;24.69;62.28;99862.06;3380565;29;20500;-76
2021/08/08 21:20:09;;;;;;;36.37;13.73;;;;;;;24.69;62.52;99862.88;3380399;29;20092;-77
2021/08/08 21:21:50;;;;;;;32.85;15.00;;;;;;;24.68;62.04;99847.66;3381556;29;20063;-75
2021/08/08 21:23:31;;;;;;;27.33;14.10;;;;;;;24.69;62.26;99851.19;3379863;29;20040;-76
2021/08/08 21:25:11;;;;;;;32.50;13.90;;;;;;;24.66;62.13;99844.38;3380422;29;20054;-77
2021/08/08 21:26:52;;;;;;;30.97;13.00;;;;;;;24.69;62.35;99853.91;3380001;29;20064;-77
2021/08/08 21:28:33;;;;;;;39.90;13.80;;;;;;;24.68;62.47;99853.09;3379705;29;20044;-76
2021/08/08 21:30:13;;;;;;;32.73;12.93;;;;;;;24.68;62.12;99858.53;3379624;29;20060;-77
2021/08/08 21:31:54;;;;;;;25.53;12.37;;;;;;;24.67;62.07;99856.91;3379765;29;20049;-77
2021/08/08 21:33:35;;;;;;;23.40;12.23;;;;;;;24.66;62.45;99854.47;3380091;29;20484;-76
2021/08/08 21:35:16;;;;;;;30.08;12.95;;;;;;;24.66;62.15;99849.03;3379904;29;20574;-78
2021/08/08 21:36:57;;;;;;;26.27;11.33;;;;;;;24.67;62.12;99859.63;3365758;29;20065;-77
2021/08/08 21:38:37;;;;;;;26.47;12.63;;;;;;;24.66;62.04;99857.19;3377135;29;20054;-76
2021/08/08 21:40:19;;;;;;;25.27;13.00;;;;;;;24.64;62.14;99862.91;3378636;29;20571;-76
2021/08/08 21:42:01;;;;;;;25.45;11.65;;;;;;;24.65;62.17;99867.25;3378156;29;20083;-77
2021/08/08 21:43:41;;;;;;;;;;;;;;;24.67;62.05;99867.81;3377704;29;20045;-74
2021/08/08 21:45:22;;;;;;;29.13;10.85;;;;;;;24.64;62.31;99862.13;3378078;29;19942;-75
2021/08/08 21:47:03;;;;;;;32.17;13.63;;;;;;;24.61;62.49;99847.16;3378188;29;20040;-75
2021/08/08 21:48:44;;;;;;;31.00;11.93;;;;;;;24.63;62.69;99863.19;3378295;29;20401;-76
2021/08/08 21:50:24;;;;;;;23.63;12.23;;;;;;;24.62;62.23;99865.13;3378188;29;20645;-76
2021/08/08 21:52:05;;;;;;;32.07;12.93;;;;;;;24.61;62.70;99866.22;3376897;29;20045;-76
2021/08/08 21:53:46;;;;;;;25.85;12.48;;;;;;;24.61;62.61;99865.41;3377900;29;20044;-75
2021/08/08 21:55:28;;;;;;;26.87;12.07;;;;;;;24.62;62.21;99865.13;3378250;29;20419;-76
2021/08/08 21:57:24;;;;;;;24.95;11.23;;;;;;;24.60;62.37;99867.31;3377998;29;20054;-76
2021/08/08 21:59:05;;;;;;;23.60;11.10;;;;;;;24.61;62.63;99865.41;3377830;29;20040;-76
2021/08/08 22:00:45;;;;;;;24.20;12.33;;;;;;;24.60;62.38;99864.56;3377987;29;20076;-76
2021/08/08 22:02:27;;;;;;;23.93;12.07;;;;;;;24.61;62.72;99863.50;3377902;29;20126;-76
2021/08/08 22:04:08;;;;;;;22.17;12.15;;;;;;;24.60;62.54;99867.31;3377744;29;20047;-75
2021/08/08 22:05:48;;;;;;;30.93;12.37;;;;;;;24.61;62.71;99865.41;3377908;29;20064;-75
2021/08/08 22:07:29;;;;;;;21.53;12.10;;;;;;;24.61;62.61;99870.88;3377596;29;20048;-76
2021/08/08 22:09:10;;;;;;;32.20;11.93;;;;;;;24.59;62.55;99862.97;3377785;29;20060;-76
2021/08/08 22:10:50;;;;;;;25.17;11.37;;;;;;;24.59;62.48;99866.50;3378092;29;20032;-75
2021/08/08 22:12:31;;;;;;;20.17;11.40;;;;;;;24.59;62.41;99873.84;3377938;29;20488;-75
2021/08/08 22:14:13;;;;;;;;;;;;;;;24.62;62.60;99872.47;3378540;29;20506;-75
2021/08/08 22:15:54;;;;;;;18.92;10.68;;;;;;;24.57;62.34;99860.50;3377754;29;19930;-75
2021/08/08 22:17:34;;;;;;;26.73;11.70;;;;;;;24.56;62.50;99858.09;3377730;29;20044;-75
2021/08/08 22:19:15;;;;;;;27.60;12.43;;;;;;;24.57;62.40;99868.69;3377897;29;20040;-76
2021/08/08 22:20:56;;;;;;;21.33;11.60;;;;;;;24.59;62.60;99871.13;3377507;29;20200;-75
2021/08/08 22:22:37;;;;;;;28.77;12.07;;;;;;;24.57;62.59;99868.69;3376953;29;20040;-76
2021/08/08 22:24:17;;;;;;;24.30;11.53;;;;;;;24.58;62.55;99869.53;3374061;29;20048;-76
2021/08/08 22:25:58;;;;;;;21.23;10.23;;;;;;;24.58;62.50;99866.78;3377352;29;20143;-75
2021/08/08 22:27:40;;;;;;;21.90;11.40;;;;;;;24.57;62.90;99870.59;3377750;29;20048;-75
2021/08/08 22:29:20;;;;;;;22.38;11.55;;;;;;;24.57;62.66;99867.88;3377859;29;20100;-75
2021/08/08 22:31:03;;;;;;;18.13;11.57;;;;;;;24.56;62.96;99871.72;3377724;29;20045;-76
2021/08/08 22:32:44;;;;;;;20.45;11.45;;;;;;;24.55;62.77;99865.44;3378114;29;20044;-77
2021/08/08 22:34:24;;;;;;;18.43;10.47;;;;;;;24.56;62.80;99867.06;3377696;29;20563;-76
2021/08/08 22:36:05;;;;;;;16.60;10.97;;;;;;;24.56;62.58;99867.06;3377185;29;20057;-77
2021/08/08 22:37:46;;;;;;;20.20;11.67;;;;;;;24.56;62.63;99867.06;3376783;29;20597;-77
2021/08/08 22:39:27;;;;;;;20.00;11.90;;;;;;;24.57;62.96;99873.31;3377508;29;20071;-77
2021/08/08 22:41:10;;;;;;;21.97;10.93;;;;;;;24.53;62.92;99866.81;3378531;29;20094;-77
2021/08/08 22:42:51;;;;;;;22.10;12.05;;;;;;;24.56;62.86;99880.69;3378991;29;20508;-76
2021/08/08 22:44:32;;;;;;;24.20;12.53;;;;;;;24.55;63.05;99876.34;3378656;29;20056;-77
2021/08/08 22:46:12;;;;;;;25.30;12.30;;;;;;;24.53;62.70;99877.72;3378030;29;20535;-76
2021/08/08 22:47:53;;;;;;;22.33;13.07;;;;;;;24.56;62.63;99882.59;3377757;29;20052;-76
2021/08/08 22:49:34;;;;;;;27.03;13.63;;;;;;;24.56;62.64;99877.16;3377512;29;20464;-74
2021/08/08 22:51:20;;;;;;;25.08;13.15;;;;;;;24.56;62.73;99882.59;3377587;29;20104;-75
2021/08/08 22:53:01;;;;;;;27.45;13.77;;;;;;;24.53;62.83;99878.53;3377249;29;20476;-75
2021/08/08 22:54:46;;;;;;;32.47;14.77;;;;;;;24.56;62.78;99883.41;3377318;29;20036;-75
2021/08/08 22:56:29;;;;;;;40.47;13.90;;;;;;;24.54;62.74;99871.97;3377345;29;20055;-75
2021/08/08 22:58:10;;;;;;;29.80;14.20;;;;;;;24.53;62.73;99872.28;3377422;29;20427;-76
2021/08/08 22:59:51;;;;;;;29.30;13.00;;;;;;;24.55;63.09;99876.34;3377244;29;20051;-74
2021/08/08 23:01:32;;;;;;;26.00;12.23;;;;;;;24.54;63.24;99871.97;3376921;29;20049;-76
2021/08/08 23:03:12;;;;;;;29.67;13.70;;;;;;;24.54;62.96;99879.34;3376806;29;20113;-75
2021/08/08 23:04:53;;;;;;;29.03;14.33;;;;;;;24.54;62.96;99868.44;3376839;29;20503;-76
2021/08/08 23:06:34;;;;;;;28.93;14.23;;;;;;;24.51;62.75;99869.00;3375596;29;20116;-75
2021/08/08 23:08:15;;;;;;;25.77;13.07;;;;;;;24.53;62.81;99877.72;3376696;29;20595;-77
2021/08/08 23:09:56;;;;;;;28.60;13.20;;;;;;;24.53;62.83;99878.53;3376749;29;20059;-76
2021/08/08 23:11:37;;;;;;;28.77;13.90;;;;;;;24.52;63.20;99870.63;3376711;29;20051;-76
2021/08/08 23:13:17;;;;;;;31.13;15.47;;;;;;;24.53;62.90;99878.53;3376850;29;20083;-76
2021/08/08 23:14:58;;;;;;;30.77;14.13;;;;;;;24.54;63.27;99879.34;3376542;29;20045;-76
2021/08/08 23:16:39;;;;;;;29.20;13.40;;;;;;;24.53;63.27;99883.19;3376735;29;20121;-75
2021/08/08 23:18:20;;;;;;;29.73;14.27;;;;;;;24.52;63.15;99881.53;3376632;29;20432;-76
2021/08/08 23:20:01;;;;;;;29.33;14.45;;;;;;;24.52;63.06;99881.53;3376383;29;20460;-77
2021/08/08 23:21:41;;;;;;;28.93;14.23;;;;;;;24.52;63.53;99885.06;3376563;29;20135;-76
2021/08/08 23:23:22;;;;;;;24.03;14.17;;;;;;;24.52;63.37;99886.97;3376590;29;20054;-75
2021/08/08 23:25:03;;;;;;;33.90;14.63;;;;;;;24.50;63.55;99884.56;3377068;29;20081;-76
2021/08/08 23:26:44;;;;;;;28.63;15.35;;;;;;;24.50;63.53;99884.56;3377204;29;20048;-77
2021/08/08 23:28:25;;;;;;;24.47;13.80;;;;;;;24.51;63.40;99897.06;3377420;29;20046;-75
2021/08/08 23:30:06;;;;;;;26.50;14.47;;;;;;;24.50;63.35;99889.16;3377534;29;20044;-75
2021/08/08 23:31:46;;;;;;;31.80;14.48;;;;;;;24.49;63.58;99891.09;3377455;29;20412;-75
2021/08/08 23:33:27;;;;;;;33.63;15.80;;;;;;;24.48;63.29;99889.47;3376824;29;20048;-75
2021/08/08 23:35:09;;;;;;;27.20;14.40;;;;;;;24.47;63.41;99885.09;3376768;29;20044;-76
2021/08/08 23:36:49;;;;;;;36.00;14.07;;;;;;;24.47;63.68;99890.53;3376742;29;20061;-74
2021/08/08 23:38:30;;;;;;;39.83;15.07;;;;;;;24.46;63.30;99882.66;3376517;29;20059;-75
2021/08/08 23:40:11;;;;;;;34.00;15.40;;;;;;;24.46;63.74;99888.13;3377051;29;20044;-75
2021/08/08 23:41:52;;;;;;;36.60;15.43;;;;;;;24.46;63.32;99882.66;3377323;29;20048;-74
2021/08/08 23:43:32;;;;;;;32.70;15.80;;;;;;;24.42;63.35;99881.56;3376916;29;20563;-76
2021/08/08 23:45:13;;;;;;;37.73;14.67;;;;;;;24.41;63.41;99882.66;3377259;29;20044;-76
2021/08/08 23:46:54;;;;;;;33.00;14.30;;;;;;;24.42;63.33;99885.13;3376819;29;20587;-75
2021/08/08 23:48:34;;;;;;;27.93;14.00;;;;;;;24.42;63.73;99890.56;3376647;29;20045;-76
2021/08/08 23:50:16;;;;;;;29.60;14.63;;;;;;;24.42;63.69;99896.03;3376713;29;20056;-78
2021/08/08 23:51:57;;;;;;;33.85;13.52;;;;;;;24.41;63.65;99888.13;3362900;29;20045;-76
2021/08/08 23:53:37;;;;;;;32.60;14.63;;;;;;;24.38;63.56;99886.78;3373751;29;20099;-76
2021/08/08 23:55:18;;;;;;;33.97;13.57;;;;;;;24.39;63.31;99896.56;3376632;29;20041;-76
2021/08/08 23:56:59;;;;;;;30.13;14.23;;;;;;;24.35;63.55;99885.41;3376340;29;20150;-76
2021/08/08 23:58:39;;;;;;;31.70;13.80;;;;;;;24.37;63.47;99887.88;3376556;29;20056;-75
